ESME weather

Eslöv Airport
Eslöv, Skåne län, Sweden

Public forecast

Using degrees Celsius for public forecast. Weather courtesy of forecast.io.

Closest aviation weather report (METAR) to Eslöv Airport

Closest report is Ljungbyhed Airport, 14.6 nm (27.1 km) NNW. Retrieved 2020/04/05 10:20 UTC (35 minutes ago):

ESTL 051020Z AUTO 20009KT 160V260 9999 NCD 14/01 Q1031

Closest aviation forecast (TAF) to Eslöv Airport

Forecast is more than 12 hours old.

Closest forecast is Ljungbyhed Airport, 14.6 nm (27.1 km) NNW. Retrieved 2016/03/01 09:33 UTC (4 years ago):

TAF ESTL 010830Z 0109/0124 14004KT 9999 SCT025